Bei Facebook empfehlenBei Twitter postenGoogle plusPinterest

Das Wetter im Erzgebirge am 31.07.2015

Wetter und Klima am 31.07.2015 Holzhau im Erzgebirge (630m ü.NN)
Letzte gemessene Temperatur und Uhrzeit der Messung23:45:00 Uhr7.30 °C
Temperatur (Maximum / Höchstwert) und Uhrzeit der Messung16:00:00 Uhr20.60 °C
Temperatur (Minimum / Tiefstwert) und Uhrzeit der Messung04:15:002.90 °C
Errechneter Absolutwert der Temperaturschwankungen zwischen Tmin und Tmax des Tages17.70 K
Errechnete Tagesmitteltemperatur11.97396 °C
Gesamt - Niederschlag des Tages (in flüssiger Form)0.00 Liter / m²
Luftdruck (Maximum / Höchstwert) und Zeitpunkt der Messung13:00:00 Uhr1017.80 hPa
Luftdruck (Minimum / Tiefstwert) und Zeitpunkt der Messung00:15:00 Uhr1015.10 hPa
Errechneter Absolutwert der Luftdruckschwankungen des Tages2.70 hPa
Höchste gemessene Windgeschwindigkeit und Uhrzeit der Messung23:45:00 Uhr0.00 km/h
Errechnete Windhäufigkeit in Relation zu den Messwerten des Tages0.00000 %
Niedrigste Windkühle (Windchill) und Zeitpunkt der Messung04:15:00 Uhr2.90 °C
Taupunkt (Maximum / Höchstwert) und Uhrzeit der Messung15:00:00 Uhr10.00 °C
Taupunkt (Minimum / Tiefstwert) und Uhrzeit der Messung04:15:001.10 °C
Anzahl der automatisch eingelesenen Messwerte 96

Detaillierte Wetter- und Klima- Messwerte für den 31.07.2015 in Holzhau im Erzgebirge (630m ü.NN)
ZeitTemperaturLuftdruckRel. LuftfeuchteWindWindrichtungWindchillTaupunktNiederschlag l/m²
23:45:007.30 °C1016.60 hPa82.00 %4.40 °C 
23:30:007.60 °C1016.60 hPa81.00 %4.60 °C 
23:15:007.80 °C1016.50 hPa80.00 %4.60 °C 
23:00:008.10 °C1016.60 hPa80.00 %4.90 °C 
22:45:008.20 °C1016.70 hPa80.00 %5.00 °C 
22:30:008.40 °C1016.70 hPa78.00 %4.80 °C 
22:15:008.80 °C1016.60 hPa77.00 %5.00 °C 
22:00:008.90 °C1016.70 hPa75.00 %4.70 °C 
21:45:009.40 °C1016.50 hPa73.00 %4.80 °C 
21:30:0010.10 °C1016.60 hPa71.00 %5.10 °C 
21:15:0010.90 °C1016.60 hPa70.00 %5.70 °C 
21:00:0011.90 °C1016.50 hPa66.00 %5.80 °C 
20:45:0013.20 °C1016.50 hPa64.00 %6.50 °C 
20:30:0014.30 °C1016.40 hPa61.00 %6.90 °C 
20:15:0015.50 °C1016.30 hPa58.00 %7.30 °C 
20:00:0016.30 °C1016.40 hPa56.00 %7.50 °C 
19:45:0017.10 °C1016.50 hPa54.00 %7.70 °C 
19:30:0017.50 °C1016.20 hPa53.00 %7.80 °C 
19:15:0018.10 °C1016.40 hPa53.00 %8.40 °C 
19:00:0018.10 °C1016.40 hPa53.00 %8.40 °C 
18:45:0017.90 °C1016.60 hPa52.00 %7.90 °C 
18:30:0018.10 °C1016.60 hPa52.00 %8.10 °C 
18:15:0017.90 °C1016.60 hPa53.00 %8.20 °C 
18:00:0018.80 °C1016.70 hPa49.00 %7.90 °C 
17:45:0019.90 °C1016.70 hPa49.00 %8.90 °C 
17:30:0019.90 °C1016.60 hPa48.00 %8.60 °C 
17:15:0020.10 °C1016.60 hPa49.00 %9.10 °C 
17:00:0019.80 °C1016.70 hPa50.00 %9.10 °C 
16:45:0019.60 °C1016.90 hPa49.00 %8.60 °C 
16:30:0020.00 °C1016.90 hPa48.00 %8.70 °C 
16:15:0020.00 °C1016.90 hPa48.00 %8.70 °C 
16:00:0020.60 °C1017.10 hPa49.00 %9.50 °C 
15:45:0019.80 °C1017.20 hPa49.00 %8.80 °C 
15:30:0020.30 °C1017.10 hPa48.00 %8.90 °C 
15:15:0020.10 °C1017.40 hPa49.00 %9.10 °C 
15:00:0020.50 °C1017.30 hPa51.00 %10.00 °C 
14:45:0019.30 °C1017.30 hPa53.00 %9.50 °C 
14:30:0018.30 °C1017.30 hPa53.00 %8.60 °C 
14:15:0017.90 °C1017.30 hPa54.00 %8.50 °C 
14:00:0018.20 °C1017.30 hPa55.00 %9.00 °C 
13:45:0018.30 °C1017.30 hPa53.00 %8.60 °C 
13:30:0018.90 °C1017.40 hPa54.00 %9.40 °C 
13:15:0017.90 °C1017.70 hPa56.00 %9.00 °C 
13:00:0017.10 °C1017.80 hPa59.00 %9.00 °C 
12:45:0017.00 °C1017.60 hPa57.00 %8.40 °C 
12:30:0018.40 °C1017.60 hPa53.00 %8.70 °C 
12:15:0018.40 °C1017.60 hPa57.00 %9.70 °C 
12:00:0016.90 °C1017.70 hPa60.00 %9.10 °C 
11:45:0017.10 °C1017.60 hPa57.00 %8.50 °C 
11:30:0016.30 °C1017.60 hPa62.00 %9.00 °C 
11:15:0016.30 °C1017.60 hPa63.00 %9.30 °C 
11:00:0014.90 °C1017.60 hPa67.00 %8.80 °C 
10:45:0015.30 °C1017.40 hPa66.00 %9.00 °C 
10:30:0014.20 °C1017.40 hPa69.00 %8.60 °C 
10:15:0014.40 °C1017.50 hPa69.00 %8.80 °C 
10:00:0014.20 °C1017.50 hPa71.00 %9.00 °C 
09:45:0013.90 °C1017.50 hPa71.00 %8.70 °C 
09:30:0013.40 °C1017.50 hPa75.00 %9.10 °C 
09:15:0012.60 °C1017.30 hPa75.00 %8.30 °C 
09:00:0011.80 °C1017.30 hPa77.00 %7.90 °C 
08:45:0012.10 °C1017.30 hPa78.00 %8.40 °C 
08:30:0011.60 °C1017.20 hPa82.00 %8.60 °C 
08:15:0011.00 °C1017.10 hPa85.00 %8.60 °C 
08:00:0010.30 °C1016.90 hPa86.00 %8.10 °C 
07:45:009.80 °C1016.90 hPa87.00 %7.70 °C 
07:30:009.40 °C1016.80 hPa89.00 %7.70 °C 
07:15:008.90 °C1016.70 hPa90.00 %7.40 °C 
07:00:008.30 °C1016.60 hPa90.00 %6.80 °C 
06:45:007.60 °C1016.40 hPa90.00 %6.10 °C 
06:30:006.90 °C1016.40 hPa90.00 %5.40 °C 
06:15:006.20 °C1016.30 hPa90.00 %4.70 °C 
06:00:005.80 °C1016.10 hPa90.00 %4.30 °C 
05:45:005.40 °C1016.20 hPa90.00 %3.90 °C 
05:30:005.10 °C1016.00 hPa90.00 %3.60 °C 
05:15:004.60 °C1015.90 hPa90.00 %3.10 °C 
05:00:004.10 °C1016.00 hPa90.00 %2.60 °C 
04:45:003.70 °C1016.00 hPa89.00 %2.10 °C 
04:30:003.10 °C1015.80 hPa89.00 %1.50 °C 
04:15:002.90 °C1015.70 hPa88.00 %1.10 °C 
04:00:003.00 °C1015.60 hPa88.00 %1.20 °C 
03:45:003.10 °C1015.60 hPa87.00 %1.20 °C 
03:30:003.10 °C1015.60 hPa87.00 %1.20 °C 
03:15:003.20 °C1015.40 hPa87.00 %1.30 °C 
03:00:003.30 °C1015.60 hPa87.00 %1.30 °C 
02:45:003.40 °C1015.40 hPa86.00 %1.30 °C 
02:30:003.60 °C1015.40 hPa86.00 %1.50 °C 
02:15:003.60 °C1015.40 hPa86.00 %1.50 °C 
02:00:003.80 °C1015.30 hPa85.00 %1.50 °C 
01:45:003.90 °C1015.30 hPa85.00 %1.60 °C 
01:30:004.30 °C1015.30 hPa84.00 %1.80 °C 
01:15:004.60 °C1015.30 hPa83.00 %2.00 °C 
01:00:004.90 °C1015.20 hPa83.00 %2.30 °C 
00:45:005.40 °C1015.20 hPa83.00 %2.80 °C 
00:30:005.90 °C1015.30 hPa84.00 %3.40 °C 
00:15:005.90 °C1015.10 hPa83.00 %3.20 °C 
00:00:005.90 °C1015.10 hPa82.00 %3.10 °C 

Permanenter Link zu dieser Seite: Wetter im Erzgebirge am 31.07.2015
Performance-Info: Die Erstellung der Seite / Statistik(en) / Tabelle(n) erforderte 5 Datenbankserver-Abfrage(n) und dauerte 102 Millisekunden. (Dieser Messwert ist von der Gesamt-Auslastung des Servers abhängig.)
Erzgebirge - Wetter | Erzgebirge - Wetter (Mobilgeräte) | Komplette Klimadatenbank